createdAt,value
2019-03-08T00:00:32.977Z,66.00
2019-03-08T00:01:13.240Z,65.78
2019-03-08T00:01:48.936Z,66.12
2019-03-08T00:02:24.665Z,66.12
2019-03-08T00:03:00.098Z,66.15
2019-03-08T00:03:36.257Z,65.92
2019-03-08T00:04:11.989Z,66.12
2019-03-08T00:04:47.699Z,66.21
2019-03-08T00:05:23.438Z,66.21
2019-03-08T00:05:58.848Z,66.14
2019-03-08T00:06:34.767Z,66.42
2019-03-08T00:07:10.279Z,66.39
2019-03-08T00:07:45.718Z,66.53
2019-03-08T00:08:21.120Z,66.45
2019-03-08T00:08:56.948Z,66.79
2019-03-08T00:09:32.577Z,66.32
2019-03-08T00:10:08.081Z,66.22
2019-03-08T00:10:43.533Z,66.87
2019-03-08T00:11:19.205Z,66.87
2019-03-08T00:11:54.611Z,66.57
2019-03-08T00:12:30.282Z,66.51
2019-03-08T00:13:05.668Z,66.49
2019-03-08T00:13:41.518Z,66.49
2019-03-08T00:14:17.368Z,66.87
2019-03-08T00:14:52.985Z,66.87
2019-03-08T00:15:28.420Z,66.67
2019-03-08T00:16:04.663Z,66.45
2019-03-08T00:16:40.103Z,66.30
2019-03-08T00:17:15.605Z,66.47
2019-03-08T00:17:51.308Z,66.49
2019-03-08T00:18:26.987Z,66.39
2019-03-08T00:19:02.680Z,66.38
2019-03-08T00:19:38.384Z,66.34
2019-03-08T00:20:14.149Z,66.47
2019-03-08T00:20:49.855Z,66.18
2019-03-08T00:21:25.350Z,66.07
2019-03-08T00:22:01.072Z,66.75
2019-03-08T00:22:36.993Z,66.75
2019-03-08T00:23:12.742Z,66.54
2019-03-08T00:23:48.537Z,66.34
2019-03-08T00:24:24.174Z,66.02
2019-03-08T00:24:59.547Z,65.97
2019-03-08T00:25:34.956Z,65.80
2019-03-08T00:26:10.667Z,65.74
2019-03-08T00:26:46.083Z,65.63
2019-03-08T00:27:21.747Z,65.80
2019-03-08T00:27:57.147Z,66.00
2019-03-08T00:28:33.876Z,65.79
2019-03-08T00:29:44.059Z,65.49
2019-03-08T00:30:19.734Z,65.49
2019-03-08T00:30:55.410Z,66.26
2019-03-08T00:31:30.833Z,66.26
2019-03-08T00:32:06.498Z,66.19
2019-03-08T00:33:16.079Z,65.99
2019-03-08T00:33:51.568Z,66.26
2019-03-08T00:34:26.964Z,66.16
2019-03-08T00:35:02.376Z,66.16
2019-03-08T00:35:38.282Z,66.14
2019-03-08T00:36:14.012Z,66.07
2019-03-08T00:36:49.682Z,66.08
2019-03-08T00:37:25.107Z,65.91
2019-03-08T00:38:01.067Z,65.96
2019-03-08T00:38:36.461Z,65.99
2019-03-08T00:39:12.300Z,66.23
2019-03-08T00:39:48.687Z,66.23
2019-03-08T00:40:24.065Z,65.94
2019-03-08T00:40:59.494Z,65.94
2019-03-08T00:41:35.128Z,66.35
2019-03-08T00:42:10.874Z,66.54
2019-03-08T00:42:46.319Z,65.58
2019-03-08T00:43:21.707Z,66.24
2019-03-08T00:43:57.189Z,66.12
2019-03-08T00:44:32.837Z,65.75
2019-03-08T00:45:09.206Z,65.75
2019-03-08T00:45:45.132Z,65.77
2019-03-08T00:46:20.853Z,65.69
2019-03-08T00:46:56.502Z,65.84
2019-03-08T00:47:32.199Z,65.54
2019-03-08T00:48:08.189Z,65.54
2019-03-08T00:48:43.886Z,65.82
2019-03-08T00:49:53.426Z,65.95
2019-03-08T00:50:29.395Z,65.98
2019-03-08T00:51:04.826Z,65.98
2019-03-08T00:51:40.269Z,66.02
2019-03-08T00:52:15.839Z,66.02
2019-03-08T00:52:51.230Z,66.36
2019-03-08T00:53:26.650Z,66.36
2019-03-08T00:54:02.354Z,66.46
2019-03-08T00:54:37.757Z,66.46
2019-03-08T00:55:13.527Z,66.71
2019-03-08T00:55:48.939Z,66.63
2019-03-08T00:56:24.626Z,66.63
2019-03-08T00:57:00.299Z,66.96
2019-03-08T00:57:35.699Z,66.96
2019-03-08T00:58:11.155Z,66.57
2019-03-08T00:58:46.563Z,66.59
2019-03-08T00:59:22.197Z,66.61
2019-03-08T00:59:57.585Z,66.59
2019-03-08T01:00:33.254Z,66.72
2019-03-08T01:01:08.668Z,66.65
2019-03-08T01:01:44.282Z,66.60
2019-03-08T01:02:19.949Z,66.69
2019-03-08T01:02:55.333Z,66.68
2019-03-08T01:03:30.750Z,66.58
2019-03-08T01:04:06.663Z,66.37
2019-03-08T01:04:42.093Z,66.38
2019-03-08T01:05:17.938Z,66.51
2019-03-08T01:05:53.641Z,66.56
2019-03-08T01:06:29.047Z,66.75
2019-03-08T01:07:04.523Z,66.58
2019-03-08T01:07:39.932Z,66.66
2019-03-08T01:08:15.373Z,66.66
2019-03-08T01:08:50.787Z,66.52
2019-03-08T01:09:26.204Z,66.46
2019-03-08T01:10:02.165Z,66.55
2019-03-08T01:10:37.861Z,66.48
2019-03-08T01:11:13.889Z,66.48
2019-03-08T01:11:49.571Z,66.37
2019-03-08T01:12:24.957Z,66.08
2019-03-08T01:13:00.571Z,66.16
2019-03-08T01:13:35.976Z,66.35
2019-03-08T01:14:11.682Z,66.42
2019-03-08T01:14:47.088Z,66.19
2019-03-08T01:15:22.775Z,66.42
2019-03-08T01:15:58.148Z,66.45
2019-03-08T01:16:33.855Z,66.73
2019-03-08T01:17:09.539Z,66.63
2019-03-08T01:17:45.462Z,66.42
2019-03-08T01:18:21.135Z,65.94
2019-03-08T01:18:56.786Z,66.14
2019-03-08T01:19:32.207Z,66.06
2019-03-08T01:20:08.724Z,65.92
2019-03-08T01:20:44.169Z,66.11
2019-03-08T01:21:20.116Z,66.19
2019-03-08T01:21:55.598Z,66.23
2019-03-08T01:22:31.227Z,66.39
2019-03-08T01:23:06.871Z,66.80
2019-03-08T01:23:42.372Z,66.80
2019-03-08T01:24:18.056Z,65.98
2019-03-08T01:24:53.451Z,66.13
2019-03-08T01:25:28.820Z,65.91
2019-03-08T01:26:04.818Z,65.91
2019-03-08T01:26:40.231Z,65.82
2019-03-08T01:27:15.662Z,65.72
2019-03-08T01:28:02.215Z,65.77
2019-03-08T01:29:12.259Z,65.43
2019-03-08T01:29:47.685Z,65.51
2019-03-08T01:30:23.363Z,65.51
2019-03-08T01:30:59.325Z,65.53
2019-03-08T01:31:34.748Z,65.21
2019-03-08T01:32:10.228Z,65.21
2019-03-08T01:32:45.938Z,65.73
2019-03-08T01:33:21.316Z,65.74
2019-03-08T01:33:56.737Z,65.60
2019-03-08T01:34:32.135Z,65.67
2019-03-08T01:35:07.994Z,65.67
2019-03-08T01:35:43.420Z,65.87
2019-03-08T01:36:19.424Z,65.87
2019-03-08T01:36:54.916Z,65.80
2019-03-08T01:37:30.320Z,65.46
2019-03-08T01:38:06.008Z,65.71
2019-03-08T01:38:41.914Z,65.74
2019-03-08T01:39:17.324Z,65.79
2019-03-08T01:39:53.007Z,65.75
2019-03-08T01:40:28.709Z,65.70
2019-03-08T01:41:04.094Z,65.66
2019-03-08T01:41:40.009Z,65.44
2019-03-08T01:42:15.486Z,65.51
2019-03-08T01:42:51.229Z,65.61
2019-03-08T01:43:26.605Z,65.56
2019-03-08T01:44:02.170Z,65.48
2019-03-08T01:44:37.823Z,65.52
2019-03-08T01:45:14.538Z,65.35
2019-03-08T01:45:50.180Z,65.28
2019-03-08T01:46:25.603Z,65.28
2019-03-08T01:47:01.303Z,65.20
2019-03-08T01:47:36.679Z,65.02
2019-03-08T01:48:12.147Z,65.45
2019-03-08T01:48:47.896Z,65.45
2019-03-08T01:49:23.277Z,65.56
2019-03-08T01:49:58.662Z,65.56
2019-03-08T01:50:34.055Z,65.70
2019-03-08T01:51:09.458Z,65.50
2019-03-08T01:51:44.915Z,65.67
2019-03-08T01:52:20.320Z,65.89
2019-03-08T01:52:55.684Z,65.59
2019-03-08T01:53:31.352Z,65.71
2019-03-08T01:54:06.745Z,65.55
2019-03-08T01:54:42.822Z,65.81
2019-03-08T01:55:18.313Z,65.74
2019-03-08T01:55:53.950Z,65.59
2019-03-08T01:56:29.374Z,65.72
2019-03-08T01:57:04.757Z,65.67
2019-03-08T01:57:40.799Z,65.59
2019-03-08T01:58:16.236Z,65.75
2019-03-08T01:58:52.393Z,65.97
2019-03-08T01:59:27.878Z,65.97
2019-03-08T02:00:03.264Z,65.47
2019-03-08T02:00:40.855Z,65.40
2019-03-08T02:01:16.334Z,65.40
2019-03-08T02:01:52.012Z,65.48
2019-03-08T02:02:27.388Z,65.47
2019-03-08T02:03:03.068Z,65.51
2019-03-08T02:03:38.457Z,65.01
2019-03-08T02:04:14.127Z,65.01
2019-03-08T02:04:49.798Z,65.29
2019-03-08T02:05:25.457Z,65.02
2019-03-08T02:06:01.403Z,64.80
2019-03-08T02:06:36.848Z,64.83
2019-03-08T02:07:12.403Z,65.01
2019-03-08T02:07:47.872Z,64.98
2019-03-08T02:08:23.255Z,65.09
2019-03-08T02:08:58.898Z,65.67
2019-03-08T02:09:34.330Z,65.67
2019-03-08T02:10:11.011Z,65.46
2019-03-08T02:10:46.534Z,65.32
2019-03-08T02:11:22.444Z,65.09
2019-03-08T02:11:58.111Z,64.95
2019-03-08T02:12:33.913Z,64.96
2019-03-08T02:13:09.440Z,65.08
2019-03-08T02:13:45.191Z,65.20
2019-03-08T02:14:20.825Z,65.42
2019-03-08T02:14:56.215Z,65.54
2019-03-08T02:15:31.646Z,65.44
2019-03-08T02:16:07.277Z,65.63
2019-03-08T02:16:43.047Z,65.63
2019-03-08T02:17:18.722Z,65.22
2019-03-08T02:17:54.367Z,65.41
2019-03-08T02:18:29.768Z,65.27
2019-03-08T02:19:05.134Z,65.29
2019-03-08T02:19:40.523Z,65.23
2019-03-08T02:20:17.608Z,65.24
2019-03-08T02:20:53.005Z,64.93
2019-03-08T02:21:28.693Z,65.04
2019-03-08T02:22:04.092Z,65.04
2019-03-08T02:22:39.521Z,64.92
2019-03-08T02:23:15.293Z,65.08
2019-03-08T02:23:50.679Z,65.08
2019-03-08T02:24:26.095Z,65.16
2019-03-08T02:25:01.529Z,65.36
2019-03-08T02:25:36.923Z,65.23
2019-03-08T02:26:12.615Z,65.08
2019-03-08T02:26:48.357Z,65.23
2019-03-08T02:27:23.906Z,65.43
2019-03-08T02:27:59.305Z,65.57
2019-03-08T02:28:34.880Z,65.31
2019-03-08T02:29:10.249Z,65.31
2019-03-08T02:29:45.920Z,65.59
2019-03-08T02:30:21.404Z,65.62
2019-03-08T02:30:56.815Z,65.51
2019-03-08T02:31:32.220Z,65.50
2019-03-08T02:32:07.659Z,65.62
2019-03-08T02:32:43.067Z,65.59
2019-03-08T02:33:18.470Z,65.54
2019-03-08T02:33:53.834Z,65.44
2019-03-08T02:34:29.485Z,65.26
2019-03-08T02:35:04.875Z,65.46
2019-03-08T02:35:40.716Z,65.69
2019-03-08T02:36:16.372Z,65.63
2019-03-08T02:36:51.787Z,65.61
2019-03-08T02:37:27.202Z,65.70
2019-03-08T02:38:02.847Z,65.42
2019-03-08T02:38:38.237Z,65.29
2019-03-08T02:39:14.032Z,65.17
2019-03-08T02:39:49.677Z,65.29
2019-03-08T02:40:33.277Z,65.29
2019-03-08T02:41:08.856Z,65.49
2019-03-08T02:41:44.295Z,65.45
2019-03-08T02:42:19.945Z,65.19
2019-03-08T02:42:55.427Z,65.58
2019-03-08T02:43:30.821Z,65.86
2019-03-08T02:44:06.265Z,65.86
2019-03-08T02:44:41.651Z,65.22
2019-03-08T02:45:17.322Z,65.48
2019-03-08T02:45:52.779Z,66.00
2019-03-08T02:46:28.191Z,66.00
2019-03-08T02:47:03.588Z,65.78
2019-03-08T02:47:39.250Z,66.03
2019-03-08T02:48:15.248Z,66.12
2019-03-08T02:48:50.725Z,66.33
2019-03-08T02:49:26.543Z,66.36
2019-03-08T02:50:01.919Z,66.44
2019-03-08T02:50:37.558Z,66.51
2019-03-08T02:51:13.353Z,66.53
2019-03-08T02:51:48.825Z,67.13
2019-03-08T02:52:24.205Z,67.13
2019-03-08T02:52:59.871Z,66.94
2019-03-08T02:53:35.251Z,66.96
2019-03-08T02:54:10.897Z,67.16
2019-03-08T02:54:46.578Z,67.14
2019-03-08T02:55:22.217Z,67.03
2019-03-08T02:55:57.876Z,67.09
2019-03-08T02:56:33.516Z,67.26
2019-03-08T02:57:08.954Z,67.40
2019-03-08T02:57:44.638Z,67.36
2019-03-08T02:58:20.051Z,67.30
2019-03-08T02:58:55.439Z,67.44
2019-03-08T02:59:31.088Z,67.58
2019-03-08T03:00:07.712Z,67.63
2019-03-08T03:00:45.368Z,67.62
2019-03-08T03:01:20.992Z,67.67
2019-03-08T03:01:56.404Z,67.89
2019-03-08T03:02:32.070Z,68.04
2019-03-08T03:03:07.545Z,68.20
2019-03-08T03:03:43.166Z,68.22
2019-03-08T03:04:18.818Z,68.25
2019-03-08T03:04:54.215Z,68.21
2019-03-08T03:05:29.627Z,68.21
2019-03-08T03:06:05.006Z,68.05
2019-03-08T03:06:40.544Z,68.04
2019-03-08T03:07:16.066Z,68.11
2019-03-08T03:07:51.448Z,68.11
2019-03-08T03:08:27.106Z,68.28
2019-03-08T03:09:02.481Z,68.31
2019-03-08T03:09:38.202Z,68.36
2019-03-08T03:10:13.825Z,68.55
2019-03-08T03:10:49.229Z,68.67
2019-03-08T03:11:24.620Z,68.46
2019-03-08T03:12:00.290Z,68.37
2019-03-08T03:12:35.936Z,68.05
2019-03-08T03:13:11.347Z,68.03
2019-03-08T03:13:46.998Z,67.94
2019-03-08T03:14:22.934Z,67.77
2019-03-08T03:14:58.585Z,67.80
2019-03-08T03:15:34.299Z,67.61
2019-03-08T03:16:10.032Z,67.76
2019-03-08T03:16:45.706Z,67.95
2019-03-08T03:17:21.114Z,67.61
2019-03-08T03:17:56.500Z,67.36
2019-03-08T03:18:31.909Z,67.58
2019-03-08T03:19:07.281Z,67.49
2019-03-08T03:19:42.938Z,67.24
2019-03-08T03:20:18.522Z,67.20
2019-03-08T03:20:53.924Z,67.11
2019-03-08T03:21:29.305Z,67.13
2019-03-08T03:22:04.700Z,67.22
2019-03-08T03:22:40.134Z,67.17
2019-03-08T03:23:15.829Z,67.02
2019-03-08T03:23:51.511Z,67.21
2019-03-08T03:24:27.316Z,67.20
2019-03-08T03:25:02.971Z,67.17
2019-03-08T03:25:38.529Z,67.17
2019-03-08T03:26:13.952Z,67.51
2019-03-08T03:26:49.405Z,67.51
2019-03-08T03:27:24.822Z,67.45
2019-03-08T03:28:00.198Z,67.51
2019-03-08T03:28:35.570Z,67.58
2019-03-08T03:29:10.961Z,67.67
2019-03-08T03:29:46.924Z,67.43
2019-03-08T03:30:22.435Z,67.37
2019-03-08T03:30:57.830Z,67.31
2019-03-08T03:31:33.456Z,67.28
2019-03-08T03:32:08.997Z,67.25
2019-03-08T03:32:44.509Z,67.42
2019-03-08T03:33:19.981Z,67.39
2019-03-08T03:33:55.625Z,67.15
2019-03-08T03:34:31.004Z,66.93
2019-03-08T03:35:06.685Z,67.06
2019-03-08T03:35:42.091Z,67.21
2019-03-08T03:36:17.779Z,67.00
2019-03-08T03:36:53.281Z,67.00
2019-03-08T03:37:28.919Z,67.09
2019-03-08T03:38:04.296Z,67.19
2019-03-08T03:38:39.944Z,67.07
2019-03-08T03:39:15.368Z,66.76
2019-03-08T03:39:50.752Z,67.01
2019-03-08T03:40:26.440Z,67.10
2019-03-08T03:41:02.019Z,67.27
2019-03-08T03:41:37.872Z,67.24
2019-03-08T03:42:13.264Z,67.42
2019-03-08T03:42:49.326Z,67.59
2019-03-08T03:43:24.700Z,67.61
2019-03-08T03:44:00.645Z,67.55
2019-03-08T03:44:36.040Z,67.39
2019-03-08T03:45:11.806Z,67.62
2019-03-08T03:45:47.239Z,67.04
2019-03-08T03:46:22.631Z,66.87
2019-03-08T03:46:58.012Z,66.93
2019-03-08T03:47:33.404Z,66.94
2019-03-08T03:48:09.088Z,66.99
2019-03-08T03:48:44.519Z,66.77
2019-03-08T03:49:19.910Z,66.74
2019-03-08T03:49:55.558Z,66.91
2019-03-08T03:50:31.289Z,66.91
2019-03-08T03:51:06.950Z,66.63
2019-03-08T03:51:42.945Z,66.80
2019-03-08T03:52:18.599Z,67.02
2019-03-08T03:52:53.976Z,67.01
2019-03-08T03:53:29.450Z,67.21
2019-03-08T03:54:05.085Z,67.41
2019-03-08T03:54:40.507Z,67.48
2019-03-08T03:55:16.696Z,67.57
2019-03-08T03:55:52.387Z,67.57
2019-03-08T03:56:28.458Z,67.38
2019-03-08T03:57:03.842Z,67.62
2019-03-08T03:57:39.412Z,67.60
2019-03-08T03:58:14.808Z,67.66
2019-03-08T03:58:50.487Z,67.68
2019-03-08T03:59:25.857Z,67.79
2019-03-08T04:00:01.261Z,68.05
2019-03-08T04:00:36.659Z,67.59
2019-03-08T04:01:24.856Z,67.44
2019-03-08T04:02:00.246Z,67.39
2019-03-08T04:02:35.645Z,67.60
2019-03-08T04:03:11.302Z,67.41
2019-03-08T04:03:46.681Z,67.28
2019-03-08T04:04:22.429Z,67.25
2019-03-08T04:04:58.064Z,66.81
2019-03-08T04:05:33.902Z,66.97
2019-03-08T04:06:09.560Z,66.68
2019-03-08T04:06:45.136Z,66.37
2019-03-08T04:07:20.650Z,66.76
2019-03-08T04:07:56.175Z,66.81
2019-03-08T04:08:31.545Z,66.78
2019-03-08T04:09:12.288Z,66.64
2019-03-08T04:09:47.713Z,66.67
2019-03-08T04:10:23.085Z,66.57
2019-03-08T04:10:58.488Z,66.59
2019-03-08T04:11:34.150Z,66.52
2019-03-08T04:12:09.580Z,66.60
2019-03-08T04:12:45.096Z,66.66
2019-03-08T04:13:21.039Z,66.59
2019-03-08T04:13:57.301Z,66.75
2019-03-08T04:14:32.671Z,66.62
2019-03-08T04:15:10.071Z,66.47
2019-03-08T04:15:45.496Z,66.24
2019-03-08T04:16:21.119Z,66.42
2019-03-08T04:16:56.497Z,66.25
2019-03-08T04:17:31.864Z,66.40
2019-03-08T04:18:07.499Z,66.47
2019-03-08T04:18:43.158Z,66.48
2019-03-08T04:19:18.738Z,66.64
2019-03-08T04:19:54.109Z,66.60
2019-03-08T04:20:29.681Z,66.58
2019-03-08T04:21:05.107Z,66.50
2019-03-08T04:21:40.522Z,66.35
2019-03-08T04:22:16.246Z,66.71
2019-03-08T04:22:51.628Z,66.61
2019-03-08T04:23:27.023Z,66.56
2019-03-08T04:24:02.402Z,66.54
2019-03-08T04:24:37.797Z,66.55
2019-03-08T04:25:13.412Z,66.49
2019-03-08T04:25:48.791Z,66.39
2019-03-08T04:26:24.434Z,66.39
2019-03-08T04:27:00.073Z,66.62
2019-03-08T04:27:35.469Z,66.73
2019-03-08T04:28:10.863Z,66.76
2019-03-08T04:28:46.301Z,66.71
2019-03-08T04:29:21.657Z,66.95
2019-03-08T04:29:57.048Z,67.03
2019-03-08T04:30:32.433Z,66.97
2019-03-08T04:31:08.128Z,67.00
2019-03-08T04:31:43.509Z,67.09
2019-03-08T04:32:19.419Z,67.06
2019-03-08T04:32:55.052Z,66.87
2019-03-08T04:33:30.444Z,67.07
2019-03-08T04:34:05.827Z,66.98
2019-03-08T04:34:41.217Z,67.12
2019-03-08T04:35:16.609Z,67.31
2019-03-08T04:35:52.112Z,67.26
2019-03-08T04:36:27.763Z,67.18
2019-03-08T04:37:03.429Z,67.12
2019-03-08T04:37:39.334Z,67.00
2019-03-08T04:38:14.817Z,67.02
2019-03-08T04:38:50.196Z,67.14
2019-03-08T04:39:25.849Z,67.10
2019-03-08T04:40:01.267Z,67.11
2019-03-08T04:40:36.659Z,67.11
2019-03-08T04:41:12.123Z,67.09
2019-03-08T04:41:47.498Z,66.99
2019-03-08T04:42:22.877Z,67.13
2019-03-08T04:42:58.500Z,67.02
2019-03-08T04:43:33.892Z,67.03
2019-03-08T04:44:09.550Z,67.03
2019-03-08T04:44:44.998Z,66.97
2019-03-08T04:45:20.399Z,67.02
2019-03-08T04:45:55.818Z,67.07
2019-03-08T04:46:31.190Z,66.93
2019-03-08T04:47:06.823Z,66.86
2019-03-08T04:47:42.255Z,66.79
2019-03-08T04:48:17.720Z,66.72
2019-03-08T04:48:53.356Z,66.93
2019-03-08T04:49:28.735Z,66.82
2019-03-08T04:50:04.227Z,66.67
2019-03-08T04:50:39.728Z,66.67
2019-03-08T04:51:15.182Z,66.58
2019-03-08T04:51:50.820Z,66.62
2019-03-08T04:52:27.888Z,66.52
2019-03-08T04:53:03.871Z,66.63
2019-03-08T04:53:39.441Z,66.43
2019-03-08T04:54:14.890Z,66.27
2019-03-08T04:54:50.300Z,66.29
2019-03-08T04:55:25.681Z,66.09
2019-03-08T04:56:01.400Z,66.27
2019-03-08T04:56:37.069Z,66.16
2019-03-08T04:57:12.459Z,66.02
2019-03-08T04:57:48.448Z,65.98
2019-03-08T04:58:24.124Z,65.96
2019-03-08T04:58:59.909Z,65.88
2019-03-08T04:59:35.519Z,65.67
2019-03-08T05:00:14.601Z,65.73
2019-03-08T05:00:49.989Z,65.67
2019-03-08T05:01:25.399Z,65.63
2019-03-08T05:02:01.041Z,65.60
2019-03-08T05:02:36.409Z,65.82
2019-03-08T05:03:11.925Z,65.50
2019-03-08T05:03:47.313Z,65.31
2019-03-08T05:04:22.976Z,65.27
2019-03-08T05:04:58.590Z,65.23
2019-03-08T05:05:33.987Z,65.04
2019-03-08T05:06:09.448Z,64.97
2019-03-08T05:06:44.930Z,64.90
2019-03-08T05:07:20.734Z,64.95
2019-03-08T05:07:56.117Z,64.89
2019-03-08T05:08:32.046Z,64.83
2019-03-08T05:09:07.836Z,64.82
2019-03-08T05:09:43.267Z,64.67
2019-03-08T05:10:18.933Z,64.43
2019-03-08T05:10:54.566Z,64.21
2019-03-08T05:11:29.981Z,64.16
2019-03-08T05:12:05.357Z,64.20
2019-03-08T05:12:40.805Z,64.19
2019-03-08T05:13:16.221Z,64.17
2019-03-08T05:13:52.203Z,64.02
2019-03-08T05:14:27.862Z,64.15
2019-03-08T05:15:03.245Z,64.17
2019-03-08T05:15:38.632Z,64.06
2019-03-08T05:16:14.150Z,64.29
2019-03-08T05:16:49.570Z,64.09
2019-03-08T05:17:24.962Z,64.02
2019-03-08T05:18:00.686Z,64.15
2019-03-08T05:18:36.203Z,64.27
2019-03-08T05:19:11.651Z,64.30
2019-03-08T05:19:47.427Z,64.23
2019-03-08T05:20:22.807Z,64.51
2019-03-08T05:20:58.531Z,64.50
2019-03-08T05:21:33.995Z,64.44
2019-03-08T05:22:09.425Z,64.22
2019-03-08T05:22:44.923Z,64.08
2019-03-08T05:23:20.738Z,64.19
2019-03-08T05:23:56.154Z,64.12
2019-03-08T05:24:31.721Z,63.99
2019-03-08T05:25:07.597Z,63.87
2019-03-08T05:25:43.043Z,64.12
2019-03-08T05:26:18.712Z,63.96
2019-03-08T05:26:54.470Z,63.93
2019-03-08T05:27:30.110Z,63.92
2019-03-08T05:28:05.499Z,63.78
2019-03-08T05:28:41.223Z,63.78
2019-03-08T05:29:16.716Z,64.03
2019-03-08T05:29:52.090Z,64.16
2019-03-08T05:30:27.460Z,64.25
2019-03-08T05:31:02.825Z,64.10
2019-03-08T05:31:38.217Z,64.22
2019-03-08T05:32:13.878Z,64.36
2019-03-08T05:32:49.504Z,64.14
2019-03-08T05:33:24.879Z,63.90
2019-03-08T05:34:00.260Z,64.07
2019-03-08T05:34:35.639Z,63.94
2019-03-08T05:35:11.228Z,63.79
2019-03-08T05:35:46.711Z,63.90
2019-03-08T05:36:22.079Z,63.92
2019-03-08T05:36:57.487Z,63.93
2019-03-08T05:37:33.182Z,63.93
2019-03-08T05:38:08.674Z,64.29
2019-03-08T05:38:44.404Z,64.13
2019-03-08T05:39:19.955Z,64.12
2019-03-08T05:39:55.600Z,63.82
2019-03-08T05:40:31.278Z,63.89
2019-03-08T05:41:06.753Z,63.89
2019-03-08T05:41:42.296Z,64.02
2019-03-08T05:42:18.046Z,64.01
2019-03-08T05:42:53.430Z,64.01
2019-03-08T05:43:29.093Z,64.04
2019-03-08T05:44:04.489Z,64.11
2019-03-08T05:44:39.890Z,64.28
2019-03-08T05:45:15.416Z,64.07
2019-03-08T05:45:50.786Z,64.07
2019-03-08T05:46:26.433Z,64.23
2019-03-08T05:47:02.126Z,64.13
2019-03-08T05:47:37.769Z,64.10
2019-03-08T05:48:13.160Z,64.53
2019-03-08T05:48:48.583Z,64.53
2019-03-08T05:49:24.312Z,64.00
2019-03-08T05:49:59.690Z,64.00
2019-03-08T05:50:35.062Z,64.14
2019-03-08T05:51:10.508Z,64.19
2019-03-08T05:51:46.223Z,63.87
2019-03-08T05:52:21.896Z,63.88
2019-03-08T05:52:57.531Z,63.79
2019-03-08T05:53:33.234Z,63.90
2019-03-08T05:54:09.061Z,63.90
2019-03-08T05:54:44.588Z,64.07
2019-03-08T05:55:20.024Z,63.92
2019-03-08T05:55:55.402Z,64.13
2019-03-08T05:56:30.780Z,64.36
2019-03-08T05:57:06.183Z,64.39
2019-03-08T05:57:44.227Z,64.38
2019-03-08T05:58:19.655Z,64.28
2019-03-08T05:58:55.059Z,64.23
2019-03-08T05:59:30.690Z,63.95
2019-03-08T06:00:07.084Z,63.86
2019-03-08T06:00:42.800Z,63.94
2019-03-08T06:01:18.511Z,63.86
2019-03-08T06:01:54.011Z,63.86
2019-03-08T06:02:29.399Z,64.05
2019-03-08T06:03:05.054Z,63.67
2019-03-08T06:03:40.793Z,63.67
2019-03-08T06:04:16.778Z,63.95
2019-03-08T06:04:52.712Z,63.96
2019-03-08T06:05:28.139Z,63.77
2019-03-08T06:06:03.826Z,63.74
2019-03-08T06:06:39.226Z,63.76
2019-03-08T06:07:14.658Z,63.73
2019-03-08T06:07:50.324Z,63.73
2019-03-08T06:08:26.020Z,63.57
2019-03-08T06:09:01.782Z,63.53
2019-03-08T06:09:37.163Z,63.49
2019-03-08T06:10:31.399Z,63.64
2019-03-08T06:11:06.767Z,63.16
2019-03-08T06:11:42.219Z,63.43
2019-03-08T06:12:18.179Z,63.43
2019-03-08T06:12:53.656Z,62.94
2019-03-08T06:13:29.143Z,62.99
2019-03-08T06:14:04.796Z,63.01
2019-03-08T06:14:40.172Z,62.90
2019-03-08T06:15:15.547Z,62.63
2019-03-08T06:15:51.269Z,62.60
2019-03-08T06:16:26.707Z,62.75
2019-03-08T06:17:02.388Z,62.81
2019-03-08T06:17:37.774Z,63.06
2019-03-08T06:18:13.183Z,63.13
2019-03-08T06:18:49.250Z,62.92
2019-03-08T06:19:24.753Z,63.05
2019-03-08T06:20:00.604Z,63.05
2019-03-08T06:20:36.157Z,62.83
2019-03-08T06:21:11.529Z,62.80
2019-03-08T06:21:47.202Z,62.70
2019-03-08T06:22:22.805Z,62.65
2019-03-08T06:22:58.483Z,62.55
2019-03-08T06:23:34.967Z,62.56
2019-03-08T06:24:10.398Z,62.76
2019-03-08T06:24:46.097Z,62.71
2019-03-08T06:25:21.617Z,62.70
2019-03-08T06:25:57.085Z,62.68
2019-03-08T06:26:32.573Z,62.71
2019-03-08T06:27:07.991Z,62.67
2019-03-08T06:27:43.625Z,62.69
2019-03-08T06:28:19.283Z,62.60
2019-03-08T06:28:54.760Z,62.73
2019-03-08T06:29:30.289Z,62.73
2019-03-08T06:30:05.913Z,62.37
2019-03-08T06:30:41.560Z,62.54
2019-03-08T06:31:17.308Z,62.66
2019-03-08T06:31:52.788Z,62.82
2019-03-08T06:32:28.242Z,62.83
2019-03-08T06:33:03.886Z,62.83
2019-03-08T06:33:39.260Z,62.99
2019-03-08T06:34:15.201Z,62.67
2019-03-08T06:34:50.947Z,62.57
2019-03-08T06:35:26.683Z,62.81
2019-03-08T06:36:02.099Z,62.39
2019-03-08T06:36:37.854Z,62.39
2019-03-08T06:37:13.273Z,62.66
2019-03-08T06:37:48.937Z,62.47
2019-03-08T06:38:24.632Z,62.40
2019-03-08T06:39:00.324Z,62.40
2019-03-08T06:39:36.043Z,62.03
2019-03-08T06:40:11.925Z,62.17
2019-03-08T06:40:47.302Z,62.32
2019-03-08T06:41:23.344Z,62.24
2019-03-08T06:41:58.866Z,62.32
2019-03-08T06:42:34.862Z,62.46
2019-03-08T06:43:10.310Z,62.38
2019-03-08T06:43:45.937Z,62.13
2019-03-08T06:44:21.411Z,62.13
2019-03-08T06:44:56.842Z,62.20
2019-03-08T06:45:32.222Z,62.21
2019-03-08T06:46:07.862Z,62.43
2019-03-08T06:46:43.521Z,62.40
2019-03-08T06:47:19.213Z,62.33
2019-03-08T06:47:54.722Z,62.33
2019-03-08T06:48:30.411Z,62.23
2019-03-08T06:49:05.802Z,62.29
2019-03-08T06:49:41.179Z,62.44
2019-03-08T06:50:16.698Z,62.44
2019-03-08T06:50:52.212Z,62.22
2019-03-08T06:51:27.743Z,62.14
2019-03-08T06:52:03.418Z,61.99
2019-03-08T06:52:38.826Z,62.12
2019-03-08T06:53:14.238Z,62.08
2019-03-08T06:53:49.665Z,62.23
2019-03-08T06:54:25.112Z,62.37
2019-03-08T06:55:01.110Z,62.45
2019-03-08T06:55:36.533Z,62.15
2019-03-08T06:56:12.350Z,62.02
2019-03-08T06:56:48.077Z,62.21
2019-03-08T06:57:23.571Z,62.52
2019-03-08T06:58:02.693Z,62.23
2019-03-08T06:58:55.414Z,61.88
2019-03-08T06:59:53.323Z,61.88
2019-03-08T07:00:47.727Z,61.98
2019-03-08T07:01:26.844Z,61.96
2019-03-08T07:02:02.494Z,61.96
2019-03-08T07:02:38.155Z,61.81
2019-03-08T07:03:14.086Z,62.03
2019-03-08T07:03:50.074Z,61.86
2019-03-08T07:04:25.483Z,61.88
2019-03-08T07:05:00.900Z,61.61
2019-03-08T07:05:36.403Z,61.61
2019-03-08T07:06:11.829Z,61.56
2019-03-08T07:06:47.283Z,61.54
2019-03-08T07:07:22.696Z,61.70
2019-03-08T07:07:58.219Z,61.70
2019-03-08T07:08:33.664Z,61.21
2019-03-08T07:09:09.637Z,61.21
2019-03-08T07:09:45.076Z,61.31
2019-03-08T07:10:20.488Z,61.41
2019-03-08T07:10:55.885Z,61.46
2019-03-08T07:11:31.276Z,61.46
2019-03-08T07:12:06.917Z,61.27
2019-03-08T07:12:42.660Z,61.71
2019-03-08T07:13:18.447Z,61.82
2019-03-08T07:13:53.856Z,61.29
2019-03-08T07:14:29.253Z,61.22
2019-03-08T07:15:04.934Z,61.60
2019-03-08T07:15:40.830Z,61.41
2019-03-08T07:16:16.573Z,61.02
2019-03-08T07:16:52.147Z,60.68
2019-03-08T07:17:27.803Z,60.68
2019-03-08T07:18:12.045Z,61.04
2019-03-08T07:18:40.344Z,60.85
2019-03-08T07:19:15.914Z,60.45
2019-03-08T07:20:17.450Z,60.48
2019-03-08T07:21:18.273Z,60.95
2019-03-08T07:21:56.889Z,60.93
2019-03-08T07:23:06.593Z,60.93
2019-03-08T07:23:59.473Z,60.60
2019-03-08T07:24:49.437Z,61.06
2019-03-08T07:25:52.594Z,60.93
2019-03-08T07:26:44.503Z,60.72
2019-03-08T07:27:37.348Z,60.86
2019-03-08T07:28:27.476Z,60.90
2019-03-08T07:29:29.137Z,60.90
2019-03-08T07:30:22.718Z,61.15
2019-03-08T07:31:35.283Z,61.12
2019-03-08T07:32:23.748Z,61.24
2019-03-08T07:33:17.277Z,61.24
2019-03-08T07:34:16.883Z,61.01
2019-03-08T07:35:02.181Z,61.07
2019-03-08T07:36:05.423Z,60.96
2019-03-08T07:36:52.045Z,61.02
2019-03-08T07:37:45.590Z,60.79
2019-03-08T07:38:42.791Z,60.72
2019-03-08T07:39:46.137Z,60.27
2019-03-08T07:40:49.642Z,60.27
2019-03-08T07:41:38.002Z,60.65
2019-03-08T07:42:22.697Z,60.65
2019-03-08T07:43:23.214Z,61.02
2019-03-08T07:44:07.553Z,60.96
2019-03-08T07:45:02.005Z,61.06
2019-03-08T07:45:56.639Z,61.14
2019-03-08T07:46:57.114Z,60.88
2019-03-08T07:47:57.725Z,60.64
2019-03-08T07:48:50.628Z,60.75
2019-03-08T07:49:43.477Z,60.38
2019-03-08T07:50:36.666Z,60.38
2019-03-08T07:51:29.722Z,60.92
2019-03-08T07:52:26.857Z,60.92
2019-03-08T07:53:08.363Z,60.60
2019-03-08T07:54:01.510Z,60.81
2019-03-08T07:54:53.662Z,60.81
2019-03-08T07:55:40.899Z,60.92